Time;durP1;ratioP1;P1;durP2;ratioP2;P2;SDS_P1;SDS_P2;PMS_P1;PMS_P2;Temp;Humidity;BMP_temperature;BMP_pressure;BME280_temperature;BME280_humidity;BME280_pressure;Samples;Min_cycle;Max_cycle;Signal;HPM_P1;HPM_P2
2023/04/01 00:01:14;;;;;;;2.37;1.03;;;12.70;99.90;;;;;;5026314;28;20213;-32
2023/04/01 00:03:42;;;;;;;4.43;0.87;;;12.70;99.90;;;;;;5026361;28;20255;-33
2023/04/01 00:06:14;;;;;;;2.10;0.63;;;12.70;99.90;;;;;;5026385;28;20190;-32
2023/04/01 00:08:41;;;;;;;2.40;0.80;;;12.70;99.90;;;;;;5028057;28;20295;-32
2023/04/01 00:11:08;;;;;;;2.03;0.80;;;12.70;99.90;;;;;;5028067;28;20209;-32
2023/04/01 00:13:38;;;;;;;2.67;0.93;;;12.70;99.90;;;;;;5027743;28;20419;-33
2023/04/01 00:16:09;;;;;;;3.00;0.80;;;12.70;99.90;;;;;;5010712;28;20878;-32
2023/04/01 00:18:52;;;;;;;4.07;0.80;;;12.70;99.90;;;;;;5026949;28;20579;-32
2023/04/01 00:21:22;;;;;;;2.13;0.73;;;12.70;99.90;;;;;;5027999;28;20300;-32
2023/04/01 00:23:50;;;;;;;2.13;0.60;;;12.60;99.90;;;;;;5027897;28;20642;-32
2023/04/01 00:26:20;;;;;;;4.23;0.87;;;12.60;99.90;;;;;;5026378;28;20225;-33
2023/04/01 00:28:49;;;;;;;2.97;0.87;;;12.60;99.90;;;;;;5010507;28;20741;-32
2023/04/01 00:31:16;;;;;;;3.67;0.97;;;12.60;99.90;;;;;;5026522;28;20204;-32
2023/04/01 00:33:48;;;;;;;3.53;0.77;;;12.60;99.90;;;;;;5026250;28;20296;-32
2023/04/01 00:36:18;;;;;;;2.97;0.80;;;12.60;99.90;;;;;;5026483;28;20225;-32
2023/04/01 00:38:46;;;;;;;5.23;0.93;;;12.60;99.90;;;;;;5027890;28;20209;-33
2023/04/01 00:41:17;;;;;;;2.60;0.70;;;12.60;99.90;;;;;;5027665;28;20687;-33
2023/04/01 00:43:48;;;;;;;2.73;0.70;;;12.60;99.90;;;;;;5025937;28;20284;-32
2023/04/01 00:46:15;;;;;;;1.53;0.60;;;12.60;99.90;;;;;;5027560;28;21035;-33
2023/04/01 00:48:48;;;;;;;3.57;0.87;;;12.60;99.90;;;;;;5008743;28;20598;-33
2023/04/01 00:51:23;;;;;;;1.87;0.60;;;12.60;99.90;;;;;;5027388;28;20256;-33
2023/04/01 00:53:55;;;;;;;1.63;0.57;;;12.60;99.90;;;;;;5027325;28;20225;-33
2023/04/01 00:56:32;;;;;;;2.33;0.70;;;12.60;99.90;;;;;;5027479;28;20244;-32
2023/04/01 00:59:08;;;;;;;2.87;0.70;;;12.60;99.90;;;;;;5025541;28;20287;-32
2023/04/01 01:01:40;;;;;;;0.93;0.40;;;12.60;99.90;;;;;;5027557;28;20207;-33
2023/04/01 01:04:28;;;;;;;1.83;0.70;;;12.60;99.90;;;;;;5030992;28;20732;-32
2023/04/01 01:07:33;;;;;;;2.10;0.40;;;12.60;99.90;;;;;;5039356;28;20212;-32
2023/04/01 01:10:30;;;;;;;1.53;0.50;;;12.60;99.90;;;;;;5045767;28;20261;-32
2023/04/01 01:13:16;;;;;;;2.47;1.00;;;12.50;99.90;;;;;;5046299;28;20274;-33
2023/04/01 01:16:11;;;;;;;1.17;0.43;;;12.50;99.90;;;;;;5035221;28;20209;-33
2023/04/01 01:18:54;;;;;;;2.33;0.70;;;12.50;99.90;;;;;;5034673;28;20679;-31
2023/04/01 01:21:57;;;;;;;2.43;0.67;;;12.50;99.90;;;;;;5046942;28;20236;-32
2023/04/01 01:24:39;;;;;;;1.50;0.50;;;12.50;99.90;;;;;;5046692;28;20200;-31
2023/04/01 01:27:18;;;;;;;0.60;0.50;;;12.50;99.90;;;;;;5046417;28;20335;-32
2023/04/01 01:30:06;;;;;;;1.50;0.60;;;12.50;99.90;;;;;;5045324;28;20606;-32
2023/04/01 01:32:52;;;;;;;3.47;0.60;;;12.50;99.90;;;;;;5044920;28;20220;-32
2023/04/01 01:35:46;;;;;;;1.33;0.60;;;12.60;99.90;;;;;;5045972;28;20294;-32
2023/04/01 01:38:18;;;;;;;1.63;0.50;;;12.50;99.90;;;;;;5045784;28;20207;-32
2023/04/01 01:40:51;;;;;;;1.20;0.50;;;12.50;99.90;;;;;;5044266;28;20202;-34
2023/04/01 01:43:22;;;;;;;3.13;0.70;;;12.50;99.90;;;;;;5046019;28;20219;-34
2023/04/01 01:45:55;;;;;;;1.33;0.83;;;12.50;99.90;;;;;;5045834;28;20199;-34
2023/04/01 01:48:26;;;;;;;2.43;0.60;;;12.50;99.90;;;;;;5044382;28;20204;-34
2023/04/01 01:50:53;;;;;;;2.60;0.67;;;12.50;99.90;;;;;;5044319;28;20193;-34
2023/04/01 01:53:21;;;;;;;1.43;0.53;;;12.50;99.90;;;;;;5044289;28;20206;-34
2023/04/01 01:55:53;;;;;;;1.10;0.50;;;12.50;99.90;;;;;;5011953;28;20236;-34
2023/04/01 01:58:31;;;;;;;2.53;0.60;;;12.50;99.90;;;;;;5044051;28;20212;-34
2023/04/01 02:01:05;;;;;;;1.00;0.40;;;12.60;99.90;;;;;;5045524;28;20215;-34
2023/04/01 02:03:40;;;;;;;1.37;0.57;;;12.60;99.90;;;;;;5027784;28;20686;-34
2023/04/01 02:06:10;;;;;;;0.57;0.40;;;12.50;99.90;;;;;;5043888;28;20255;-34
2023/04/01 02:08:55;;;;;;;1.03;0.43;;;12.60;99.90;;;;;;5045362;28;20195;-34
2023/04/01 02:11:33;;;;;;;2.87;0.60;;;12.50;99.90;;;;;;5044182;28;20235;-34
2023/04/01 02:14:18;;;;;;;1.67;0.50;;;12.50;99.90;;;;;;5045593;28;20208;-34
2023/04/01 02:17:02;;;;;;;2.00;1.00;;;12.50;99.90;;;;;;5044024;28;20220;-34
2023/04/01 02:19:46;;;;;;;1.60;0.90;;;12.40;99.90;;;;;;5045727;28;20196;-34
2023/04/01 02:22:21;;;;;;;2.33;0.90;;;12.50;99.90;;;;;;5045553;28;20624;-34
2023/04/01 02:24:53;;;;;;;2.23;1.10;;;12.50;99.90;;;;;;5045654;28;20211;-34
2023/04/01 02:27:26;;;;;;;1.77;0.63;;;12.50;99.90;;;;;;5045882;28;20548;-33
2023/04/01 02:29:56;;;;;;;1.50;0.70;;;12.50;99.90;;;;;;5045528;28;20566;-34
2023/04/01 02:32:25;;;;;;;1.73;0.80;;;12.50;99.90;;;;;;5027948;28;20226;-34
2023/04/01 02:34:52;;;;;;;1.70;0.93;;;12.50;99.90;;;;;;5043786;28;20702;-34
2023/04/01 02:37:20;;;;;;;0.73;0.67;;;12.50;99.90;;;;;;5043725;28;20595;-34
2023/04/01 02:39:50;;;;;;;1.97;0.70;;;12.50;99.90;;;;;;5045301;28;20224;-34
2023/04/01 02:42:20;;;;;;;1.00;0.60;;;12.40;99.90;;;;;;5045385;28;20290;-34
2023/04/01 02:44:51;;;;;;;1.63;0.70;;;12.40;99.90;;;;;;5044017;28;20201;-34
2023/04/01 02:47:23;;;;;;;0.73;0.60;;;12.40;99.90;;;;;;5045511;28;20648;-34
2023/04/01 02:49:57;;;;;;;1.50;0.80;;;12.40;99.90;;;;;;5043841;28;20216;-34
2023/04/01 02:52:26;;;;;;;2.97;1.10;;;12.30;99.90;;;;;;5045664;28;20199;-34
2023/04/01 02:54:56;;;;;;;1.60;1.20;;;12.30;99.90;;;;;;5043782;28;20552;-32
2023/04/01 02:57:25;;;;;;;2.07;0.93;;;12.30;99.90;;;;;;5043721;28;20239;-32
2023/04/01 02:59:55;;;;;;;2.30;0.87;;;12.30;99.90;;;;;;5043634;28;20209;-34
2023/04/01 03:02:25;;;;;;;3.10;1.00;;;12.30;99.90;;;;;;5027858;28;20206;-34
2023/04/01 03:04:52;;;;;;;2.00;1.23;;;12.30;99.90;;;;;;5011372;28;20350;-35
2023/04/01 03:07:19;;;;;;;3.80;1.60;;;12.30;99.90;;;;;;5045311;28;20365;-34
2023/04/01 03:09:48;;;;;;;4.00;1.30;;;12.30;99.90;;;;;;5045770;28;20291;-31
2023/04/01 03:12:16;;;;;;;3.13;1.53;;;12.30;99.90;;;;;;5047316;28;20696;-32
2023/04/01 03:14:43;;;;;;;4.10;1.30;;;12.20;99.90;;;;;;5047548;28;20243;-32
2023/04/01 03:17:12;;;;;;;3.83;1.40;;;12.20;99.90;;;;;;5048463;28;20220;-32
2023/04/01 03:19:41;;;;;;;3.50;0.97;;;12.20;99.90;;;;;;5047162;28;20265;-32
2023/04/01 03:22:11;;;;;;;3.50;1.37;;;12.20;99.90;;;;;;5047141;28;20197;-32
2023/04/01 03:24:43;;;;;;;7.43;1.47;;;12.20;99.90;;;;;;5047229;28;20242;-32
2023/04/01 03:27:10;;;;;;;2.80;1.60;;;12.20;99.90;;;;;;5047217;28;20295;-32
2023/04/01 03:29:42;;;;;;;2.97;1.40;;;12.20;99.90;;;;;;5046930;28;20202;-32
2023/04/01 03:32:09;;;;;;;3.57;1.43;;;12.20;99.90;;;;;;5048526;28;20251;-32
2023/04/01 03:34:36;;;;;;;5.33;1.40;;;12.20;99.90;;;;;;5046825;28;20661;-31
2023/04/01 03:37:04;;;;;;;3.60;1.50;;;12.20;99.90;;;;;;5046822;28;20216;-32
2023/04/01 03:39:33;;;;;;;4.57;1.63;;;12.20;99.90;;;;;;5047187;28;20200;-32
2023/04/01 03:42:02;;;;;;;4.10;1.70;;;12.30;99.90;;;;;;5046703;28;20208;-32
2023/04/01 03:44:33;;;;;;;4.47;1.60;;;12.20;99.90;;;;;;5049149;28;20246;-31
2023/04/01 03:47:08;;;;;;;5.17;1.90;;;12.20;99.90;;;;;;5046719;28;20208;-32
2023/04/01 03:49:38;;;;;;;3.47;1.97;;;12.20;99.90;;;;;;5048168;28;20228;-32
2023/04/01 03:52:10;;;;;;;2.50;1.53;;;12.20;99.90;;;;;;5048071;28;20219;-32
2023/04/01 03:54:40;;;;;;;6.03;1.90;;;12.20;99.90;;;;;;5048215;28;20282;-32
2023/04/01 03:57:09;;;;;;;3.70;2.37;;;12.20;99.90;;;;;;5046374;28;20323;-31
2023/04/01 03:59:37;;;;;;;4.10;2.50;;;12.20;99.90;;;;;;5046134;28;20306;-31
2023/04/01 04:02:04;;;;;;;6.27;2.77;;;12.30;99.90;;;;;;5047701;28;20741;-32
2023/04/01 04:04:34;;;;;;;4.90;2.87;;;12.20;99.90;;;;;;5048279;28;20283;-32
2023/04/01 04:07:01;;;;;;;6.80;2.73;;;12.20;99.90;;;;;;5046495;28;20217;-34
2023/04/01 04:09:30;;;;;;;8.37;3.23;;;12.20;99.90;;;;;;5046799;28;20207;-34
2023/04/01 04:11:58;;;;;;;6.17;3.20;;;12.20;99.90;;;;;;5047834;28;20205;-34
2023/04/01 04:14:29;;;;;;;7.17;3.27;;;12.20;99.90;;;;;;5046133;28;20338;-34
2023/04/01 04:16:57;;;;;;;5.00;3.10;;;12.20;99.90;;;;;;5046027;28;20777;-34
2023/04/01 04:19:24;;;;;;;7.73;3.63;;;12.10;99.90;;;;;;5046334;28;20741;-34
2023/04/01 04:21:51;;;;;;;9.73;3.80;;;12.10;99.90;;;;;;5047291;28;20622;-31
2023/04/01 04:24:18;;;;;;;8.80;3.60;;;12.10;99.90;;;;;;5047458;28;20362;-33
2023/04/01 04:26:45;;;;;;;6.40;3.43;;;12.20;99.90;;;;;;5045919;28;20208;-32
2023/04/01 04:29:12;;;;;;;6.00;3.60;;;12.10;99.90;;;;;;5045741;28;20456;-32
2023/04/01 04:31:40;;;;;;;7.00;3.53;;;12.10;99.90;;;;;;5047096;28;20228;-32
2023/04/01 04:34:07;;;;;;;5.23;3.30;;;12.10;99.90;;;;;;5029236;28;20204;-32
2023/04/01 04:36:36;;;;;;;6.90;3.37;;;12.10;99.90;;;;;;5047169;28;20204;-32
2023/04/01 04:39:08;;;;;;;5.63;3.10;;;12.10;99.90;;;;;;5047273;28;20254;-32
2023/04/01 04:41:37;;;;;;;4.57;2.90;;;12.20;99.90;;;;;;5046892;28;20211;-31
2023/04/01 04:44:05;;;;;;;6.20;3.00;;;12.10;99.90;;;;;;5029346;28;20582;-32
2023/04/01 04:46:39;;;;;;;4.50;3.00;;;12.10;99.90;;;;;;5029531;28;20208;-32
2023/04/01 04:49:08;;;;;;;6.27;3.23;;;12.10;99.90;;;;;;5045372;28;20248;-32
2023/04/01 04:51:36;;;;;;;5.63;2.70;;;12.10;99.90;;;;;;5028942;28;20208;-32
2023/04/01 04:54:08;;;;;;;4.63;2.50;;;12.10;99.90;;;;;;5045508;28;20291;-31
2023/04/01 04:56:38;;;;;;;3.50;2.47;;;12.10;99.90;;;;;;5045164;28;20684;-32
2023/04/01 04:59:12;;;;;;;4.10;2.10;;;12.10;99.90;;;;;;5045385;28;20200;-31
2023/04/01 05:01:41;;;;;;;3.13;1.93;;;12.10;99.90;;;;;;5045128;28;20192;-32
2023/04/01 05:04:11;;;;;;;3.93;2.47;;;12.10;99.90;;;;;;5029173;28;20331;-31
2023/04/01 05:06:42;;;;;;;5.80;2.20;;;12.10;99.90;;;;;;5046797;28;20233;-32
2023/04/01 05:09:09;;;;;;;5.87;2.50;;;12.10;99.90;;;;;;5045634;28;20727;-32
2023/04/01 05:11:38;;;;;;;2.67;1.50;;;12.10;99.90;;;;;;5046446;28;20196;-32
2023/04/01 05:14:05;;;;;;;2.33;1.50;;;12.10;99.90;;;;;;5046348;28;20208;-32
2023/04/01 05:16:35;;;;;;;4.33;1.90;;;12.10;99.90;;;;;;5044947;28;20202;-32
2023/04/01 05:19:04;;;;;;;2.50;1.40;;;12.10;99.90;;;;;;5044949;28;20270;-32
2023/04/01 05:21:32;;;;;;;2.87;1.43;;;12.10;99.90;;;;;;5044789;28;20235;-32
2023/04/01 05:24:08;;;;;;;2.47;1.13;;;12.10;99.90;;;;;;5044592;28;20208;-32
2023/04/01 05:26:36;;;;;;;3.77;1.27;;;12.00;99.90;;;;;;5044873;28;20197;-33
2023/04/01 05:29:05;;;;;;;3.37;1.60;;;12.10;99.90;;;;;;5044633;28;20294;-32
2023/04/01 05:31:32;;;;;;;1.73;1.37;;;12.10;99.90;;;;;;5044614;28;20257;-31
2023/04/01 05:34:02;;;;;;;2.20;1.20;;;12.10;99.90;;;;;;5045918;28;20300;-32
2023/04/01 05:36:31;;;;;;;1.43;1.10;;;12.10;99.90;;;;;;5044543;28;20208;-35
2023/04/01 05:39:03;;;;;;;1.77;1.00;;;12.00;99.90;;;;;;5045773;28;20317;-32
2023/04/01 05:41:30;;;;;;;1.77;1.20;;;12.10;99.90;;;;;;5046066;28;20555;-32
2023/04/01 05:43:57;;;;;;;1.53;1.00;;;12.10;99.90;;;;;;5044481;28;20279;-32
2023/04/01 05:46:27;;;;;;;2.13;0.80;;;12.10;99.90;;;;;;5045770;28;20269;-31
2023/04/01 05:48:56;;;;;;;1.60;0.60;;;12.10;99.90;;;;;;5045878;28;20720;-32
2023/04/01 05:51:26;;;;;;;6.87;1.00;;;12.10;99.90;;;;;;5045638;28;20207;-31
2023/04/01 05:53:53;;;;;;;2.10;0.80;;;12.10;99.90;;;;;;5044504;28;20208;-32
2023/04/01 05:56:20;;;;;;;2.20;0.90;;;12.10;99.90;;;;;;5045689;28;20243;-32
2023/04/01 05:58:53;;;;;;;1.90;1.00;;;12.10;99.90;;;;;;5045811;28;20256;-32
2023/04/01 06:01:20;;;;;;;3.27;1.50;;;12.10;99.90;;;;;;5044351;28;20597;-32
2023/04/01 06:03:47;;;;;;;2.60;1.30;;;12.10;99.90;;;;;;5044368;28;20215;-36
2023/04/01 06:06:22;;;;;;;1.40;1.30;;;12.00;99.90;;;;;;5044195;28;20332;-32
2023/04/01 06:08:50;;;;;;;2.17;1.50;;;12.00;99.90;;;;;;5045858;28;20297;-32
2023/04/01 06:11:56;;;;;;;8.03;2.20;;;12.10;99.90;;;;;;5045958;28;20307;-34
2023/04/01 06:14:56;;;;;;;4.20;1.80;;;12.10;99.90;;;;;;5044318;28;20220;-32
2023/04/01 06:17:29;;;;;;;2.30;1.80;;;12.10;99.90;;;;;;5043873;28;20220;-32
2023/04/01 06:20:33;;;;;;;7.40;2.23;;;12.10;99.90;;;;;;5046120;28;20192;-33
2023/04/01 06:23:12;;;;;;;3.03;2.30;;;12.10;99.90;;;;;;5044530;28;20251;-31
2023/04/01 06:25:48;;;;;;;4.50;2.70;;;12.10;99.90;;;;;;5043965;28;20188;-33
2023/04/01 06:28:59;;;;;;;4.17;2.30;;;12.10;99.90;;;;;;5045663;28;20779;-32
2023/04/01 06:32:12;;;;;;;3.43;2.50;;;12.10;99.90;;;;;;5043138;28;20259;-33
2023/04/01 06:34:42;;;;;;;3.43;2.30;;;12.00;99.90;;;;;;5043835;28;20211;-32
2023/04/01 06:37:47;;;;;;;3.73;2.70;;;12.10;99.90;;;;;;5043934;28;20601;-32
2023/04/01 06:40:35;;;;;;;4.27;2.47;;;12.10;99.90;;;;;;5045770;28;20250;-33
2023/04/01 06:43:37;;;;;;;5.10;2.60;;;11.90;99.90;;;;;;5044085;28;20279;-33
2023/04/01 06:46:10;;;;;;;6.07;2.90;;;12.00;99.90;;;;;;5047190;28;20587;-32
2023/04/01 06:48:57;;;;;;;5.57;2.63;;;12.00;99.90;;;;;;5048348;28;20290;-33
2023/04/01 06:51:54;;;;;;;6.70;2.87;;;11.90;99.90;;;;;;5049763;28;20200;-33
2023/04/01 06:54:28;;;;;;;4.37;2.30;;;12.00;99.90;;;;;;5048152;28;20230;-32
2023/04/01 06:57:19;;;;;;;4.17;2.80;;;12.00;99.90;;;;;;5049638;28;20582;-32
2023/04/01 06:59:50;;;;;;;3.40;2.17;;;12.00;99.90;;;;;;5049405;28;20200;-33
2023/04/01 07:02:34;;;;;;;4.83;2.67;;;12.00;99.90;;;;;;5048133;28;20741;-32
2023/04/01 07:05:03;;;;;;;4.30;2.57;;;12.00;99.90;;;;;;5049840;28;20238;-33
2023/04/01 07:07:35;;;;;;;5.20;2.97;;;12.00;99.90;;;;;;5047699;28;20607;-32
2023/04/01 07:10:14;;;;;;;4.40;2.90;;;12.00;99.90;;;;;;5047979;28;20469;-33
2023/04/01 07:12:54;;;;;;;5.53;3.10;;;12.00;99.90;;;;;;5049020;28;20215;-32
2023/04/01 07:15:45;;;;;;;3.60;3.17;;;12.00;99.90;;;;;;5047753;28;20212;-34
2023/04/01 07:18:28;;;;;;;3.33;2.70;;;12.10;99.90;;;;;;5047903;28;20501;-32
2023/04/01 07:20:58;;;;;;;9.00;4.17;;;12.10;99.90;;;;;;5047579;28;20710;-33
2023/04/01 07:23:38;;;;;;;4.13;2.90;;;12.00;99.90;;;;;;5049236;28;20304;-32
2023/04/01 07:26:21;;;;;;;2.20;1.87;;;12.00;99.90;;;;;;5047740;28;20288;-32
2023/04/01 07:28:53;;;;;;;4.33;2.60;;;12.10;99.90;;;;;;5048835;28;20228;-33
2023/04/01 07:31:30;;;;;;;4.77;2.53;;;12.10;99.90;;;;;;5047753;28;20366;-33
2023/04/01 07:34:17;;;;;;;1.83;1.60;;;12.00;99.90;;;;;;5048724;28;20210;-33
2023/04/01 07:36:54;;;;;;;4.83;2.00;;;12.10;99.90;;;;;;5048789;28;20202;-33
2023/04/01 07:39:39;;;;;;;3.30;1.80;;;12.00;99.90;;;;;;5048787;28;20232;-32
2023/04/01 07:42:07;;;;;;;1.23;0.70;;;12.10;99.90;;;;;;5049018;28;20208;-32
2023/04/01 07:45:15;;;;;;;1.57;0.70;;;12.10;99.90;;;;;;5048863;28;20204;-32
2023/04/01 07:47:51;;;;;;;1.50;0.83;;;12.10;99.90;;;;;;5047120;28;20522;-32
2023/04/01 07:50:31;;;;;;;1.57;0.60;;;12.00;99.90;;;;;;5047371;28;20208;-32
2023/04/01 07:53:19;;;;;;;2.00;0.60;;;12.10;99.90;;;;;;5047247;28;20695;-33
2023/04/01 07:56:05;;;;;;;0.90;0.57;;;12.10;99.90;;;;;;5046724;28;20344;-32
2023/04/01 07:58:54;;;;;;;6.67;1.50;;;12.10;99.90;;;;;;5048660;28;20653;-32
2023/04/01 08:01:30;;;;;;;1.10;0.90;;;12.10;99.90;;;;;;5048371;28;20199;-33
2023/04/01 08:04:00;;;;;;;4.87;1.43;;;12.10;99.90;;;;;;5048210;28;20291;-32
2023/04/01 08:06:36;;;;;;;1.93;1.10;;;12.10;99.90;;;;;;5048591;28;20238;-33
2023/04/01 08:09:17;;;;;;;1.00;0.60;;;12.20;99.90;;;;;;5046366;28;20204;-32
2023/04/01 08:11:58;;;;;;;1.80;0.70;;;12.20;99.90;;;;;;5047332;28;20318;-32
2023/04/01 08:14:43;;;;;;;2.00;0.60;;;12.20;99.90;;;;;;5048045;28;20204;-33
2023/04/01 08:17:22;;;;;;;0.70;0.40;;;12.30;99.90;;;;;;5048198;28;20286;-33
2023/04/01 08:20:08;;;;;;;0.33;0.33;;;12.30;99.90;;;;;;5046581;28;20262;-32
2023/04/01 08:22:55;;;;;;;2.00;0.40;;;12.30;99.90;;;;;;5047800;28;20303;-33
2023/04/01 08:25:28;;;;;;;0.57;0.30;;;12.20;99.90;;;;;;5035321;28;20701;-33
2023/04/01 08:28:17;;;;;;;0.60;0.30;;;12.20;99.90;;;;;;5046208;28;20258;-32
2023/04/01 08:30:56;;;;;;;40.40;5.30;;;12.20;99.90;;;;;;5047680;28;20287;-32
2023/04/01 08:33:29;;;;;;;3.87;0.70;;;12.20;99.90;;;;;;5047451;28;20234;-32
2023/04/01 08:36:12;;;;;;;5.33;0.50;;;12.20;99.90;;;;;;5047740;28;20208;-33
2023/04/01 08:39:02;;;;;;;1.30;0.40;;;12.30;99.90;;;;;;5047466;28;20710;-33
2023/04/01 08:42:00;;;;;;;1.53;0.40;;;12.30;99.90;;;;;;5045941;28;20201;-32
2023/04/01 08:45:00;;;;;;;0.90;0.50;;;12.30;99.90;;;;;;5046041;28;20311;-32
2023/04/01 08:48:08;;;;;;;2.00;0.60;;;12.40;99.90;;;;;;5046007;28;20227;-32
2023/04/01 08:50:56;;;;;;;0.37;0.37;;;12.30;99.90;;;;;;5047322;28;20274;-33
2023/04/01 08:53:29;;;;;;;0.30;0.30;;;12.30;99.90;;;;;;5046046;28;20210;-32
2023/04/01 08:56:20;;;;;;;0.60;0.40;;;12.40;99.90;;;;;;5045703;28;20231;-32
2023/04/01 08:58:56;;;;;;;0.87;0.43;;;12.40;99.90;;;;;;5045358;28;20236;-32
2023/04/01 09:02:02;;;;;;;1.60;0.47;;;12.40;99.90;;;;;;5046976;28;20645;-32
2023/04/01 09:04:35;;;;;;;0.53;0.40;;;12.40;99.90;;;;;;5046032;28;20290;-32
2023/04/01 09:07:15;;;;;;;0.60;0.50;;;12.40;99.90;;;;;;5045520;28;20657;-32
2023/04/01 09:09:43;;;;;;;1.13;0.60;;;12.50;99.90;;;;;;5044963;28;20253;-32
2023/04/01 09:12:37;;;;;;;0.90;0.47;;;12.50;99.90;;;;;;5045825;28;20629;-32
2023/04/01 09:15:20;;;;;;;2.57;0.60;;;12.50;99.90;;;;;;5045740;28;20282;-32
2023/04/01 09:18:08;;;;;;;0.57;0.50;;;12.50;99.90;;;;;;5046680;28;20734;-32
2023/04/01 09:20:57;;;;;;;0.57;0.50;;;12.50;99.90;;;;;;5046199;28;20261;-32
2023/04/01 09:23:51;;;;;;;0.50;0.50;;;12.50;99.90;;;;;;5044604;28;20786;-32
2023/04/01 09:26:23;;;;;;;1.23;0.60;;;12.60;99.90;;;;;;5045991;28;20212;-33
2023/04/01 09:28:56;;;;;;;0.80;0.30;;;12.60;99.90;;;;;;5046290;28;20717;-32
2023/04/01 09:31:29;;;;;;;0.63;0.40;;;12.70;99.90;;;;;;5046256;28;20620;-32
2023/04/01 09:34:33;;;;;;;0.63;0.40;;;12.70;99.90;;;;;;5045896;28;20223;-32
2023/04/01 09:37:18;;;;;;;0.60;0.30;;;12.70;99.90;;;;;;5044576;28;20710;-32
2023/04/01 09:40:14;;;;;;;0.30;0.30;;;12.70;99.90;;;;;;5044688;28;20930;-33
2023/04/01 09:42:57;;;;;;;0.47;0.47;;;12.70;99.90;;;;;;5046176;28;20227;-33
2023/04/01 09:45:43;;;;;;;1.07;0.50;;;12.70;99.90;;;;;;5046013;28;20196;-32
2023/04/01 09:48:22;;;;;;;0.87;0.50;;;12.80;99.90;;;;;;5044471;28;20220;-33
2023/04/01 09:51:23;;;;;;;0.53;0.43;;;12.80;99.90;;;;;;5044290;28;20599;-32
2023/04/01 09:54:23;;;;;;;1.57;0.47;;;12.70;99.90;;;;;;5046068;28;20319;-32
2023/04/01 09:57:22;;;;;;;0.47;0.47;;;12.70;99.90;;;;;;5045599;28;20206;-33
2023/04/01 10:00:17;;;;;;;0.93;0.70;;;12.70;99.90;;;;;;5044174;28;20315;-32
2023/04/01 10:02:59;;;;;;;1.23;0.80;;;12.80;99.90;;;;;;5044224;28;20196;-34
2023/04/01 10:06:08;;;;;;;1.00;0.80;;;12.80;99.90;;;;;;5044024;28;20265;-33
2023/04/01 10:09:02;;;;;;;2.93;1.00;;;12.80;99.90;;;;;;5045851;28;20310;-33
2023/04/01 10:11:55;;;;;;;2.53;0.87;;;12.80;99.90;;;;;;5045614;28;20208;-33
2023/04/01 10:14:44;;;;;;;1.37;0.90;;;12.80;99.90;;;;;;5044242;28;20212;-32
2023/04/01 10:17:44;;;;;;;1.33;1.23;;;12.80;99.90;;;;;;5045267;28;20229;-32
2023/04/01 10:20:37;;;;;;;1.57;1.40;;;12.90;99.90;;;;;;5038351;28;20227;-33
2023/04/01 10:23:10;;;;;;;1.90;1.10;;;12.90;99.90;;;;;;5048162;28;20210;-32
2023/04/01 10:26:03;;;;;;;2.03;1.10;;;12.90;99.90;;;;;;5048092;28;20212;-33
2023/04/01 10:28:48;;;;;;;2.40;1.10;;;12.90;99.90;;;;;;5047829;28;20200;-32
2023/04/01 10:31:27;;;;;;;1.30;1.20;;;13.00;99.90;;;;;;5049266;28;20277;-32
2023/04/01 10:34:03;;;;;;;2.07;1.63;;;13.10;99.90;;;;;;5049642;28;20204;-33
2023/04/01 10:36:53;;;;;;;2.40;1.10;;;13.10;99.90;;;;;;5049496;28;20208;-31
2023/04/01 10:39:35;;;;;;;1.13;1.07;;;13.20;99.90;;;;;;5049269;28;20234;-32
2023/04/01 10:42:27;;;;;;;1.80;1.50;;;13.30;99.90;;;;;;5048142;28;20708;-32
2023/04/01 10:45:29;;;;;;;1.83;1.50;;;13.30;99.90;;;;;;5050038;28;20204;-32
2023/04/01 10:48:22;;;;;;;1.43;1.33;;;13.30;99.90;;;;;;5048050;28;20227;-32
2023/04/01 10:51:40;;;;;;;1.57;1.33;;;13.30;99.90;;;;;;5048318;28;20302;-32
2023/04/01 10:54:51;;;;;;;3.50;1.30;;;13.40;99.90;;;;;;5048917;28;20262;-32
2023/04/01 10:57:44;;;;;;;1.80;1.00;;;13.30;99.90;;;;;;5029933;28;20390;-32
2023/04/01 11:01:02;;;;;;;1.80;1.13;;;13.40;99.90;;;;;;5043391;28;20642;-32
2023/04/01 11:03:50;;;;;;;1.83;1.00;;;13.40;99.90;;;;;;5023548;28;20206;-33
2023/04/01 11:06:26;;;;;;;2.47;0.80;;;13.40;99.90;;;;;;5049008;28;20292;-33
2023/04/01 11:09:17;;;;;;;1.43;0.97;;;13.40;99.90;;;;;;5048991;28;20273;-33
2023/04/01 11:12:04;;;;;;;3.10;0.90;;;13.40;99.90;;;;;;5048162;28;20243;-32
2023/04/01 11:15:07;;;;;;;1.90;0.90;;;13.50;99.90;;;;;;5048987;28;20223;-32
2023/04/01 11:18:02;;;;;;;1.30;0.60;;;13.50;99.90;;;;;;5048954;28;20227;-32
2023/04/01 11:20:50;;;;;;;1.20;0.60;;;13.40;99.90;;;;;;5048947;28;20277;-32
2023/04/01 11:23:46;;;;;;;1.00;0.50;;;13.40;99.90;;;;;;5049048;28;20311;-32
2023/04/01 11:27:10;;;;;;;1.07;0.60;;;13.40;99.90;;;;;;5048954;28;20199;-32
2023/04/01 11:29:46;;;;;;;0.50;0.50;;;13.40;99.90;;;;;;5047711;28;21029;-32
2023/04/01 11:33:06;;;;;;;0.90;0.50;;;13.40;99.90;;;;;;5048147;28;20212;-32
2023/04/01 11:35:40;;;;;;;0.70;0.50;;;13.40;99.90;;;;;;5048731;28;20204;-32
2023/04/01 11:38:42;;;;;;;0.90;0.63;;;13.40;99.90;;;;;;5047382;28;20224;-33
2023/04/01 11:41:28;;;;;;;0.60;0.37;;;13.40;99.90;;;;;;5035067;28;20298;-32
2023/04/01 11:44:14;;;;;;;1.80;0.60;;;13.30;99.90;;;;;;5048437;28;20770;-32
2023/04/01 11:47:19;;;;;;;1.43;0.80;;;13.30;99.90;;;;;;5047139;28;20281;-32
2023/04/01 11:49:54;;;;;;;0.80;0.50;;;13.30;99.90;;;;;;5047016;28;20196;-32
2023/04/01 11:52:44;;;;;;;1.43;0.47;;;13.30;99.90;;;;;;5048098;28;20299;-32
2023/04/01 11:55:25;;;;;;;0.77;0.60;;;13.30;99.90;;;;;;5046646;28;20611;-32
2023/04/01 11:58:12;;;;;;;1.60;0.50;;;13.30;99.90;;;;;;5048545;28;20796;-34
2023/04/01 12:01:11;;;;;;;1.00;0.40;;;13.40;99.90;;;;;;5046699;28;20255;-34
2023/04/01 12:04:11;;;;;;;0.97;0.60;;;13.40;99.90;;;;;;5048212;28;20254;-34
2023/04/01 12:06:47;;;;;;;1.03;0.50;;;13.30;99.90;;;;;;5048352;28;20211;-35
2023/04/01 12:09:52;;;;;;;0.50;0.50;;;13.30;99.90;;;;;;5047955;28;20216;-33
2023/04/01 12:12:29;;;;;;;0.83;0.50;;;13.30;99.90;;;;;;5046758;28;20302;-32
2023/04/01 12:15:20;;;;;;;1.80;0.60;;;13.40;99.90;;;;;;5048160;28;20623;-32
2023/04/01 12:17:56;;;;;;;0.57;0.33;;;13.40;99.90;;;;;;5048136;28;20222;-32
2023/04/01 12:20:54;;;;;;;0.90;0.40;;;13.40;99.90;;;;;;5047801;28;20314;-32
2023/04/01 12:23:47;;;;;;;0.40;0.40;;;13.40;99.90;;;;;;5046894;28;20377;-32
2023/04/01 12:26:38;;;;;;;1.70;0.50;;;13.40;99.90;;;;;;5046329;28;20192;-32
2023/04/01 12:29:43;;;;;;;0.50;0.50;;;13.50;99.90;;;;;;5047736;28;20200;-32
2023/04/01 12:32:30;;;;;;;1.73;0.50;;;13.50;99.90;;;;;;5047657;28;20674;-32
2023/04/01 12:35:22;;;;;;;2.07;0.60;;;13.50;99.90;;;;;;5046043;28;20269;-32
2023/04/01 12:38:04;;;;;;;0.73;0.50;;;13.50;99.90;;;;;;5045873;28;20592;-32
2023/04/01 12:40:34;;;;;;;0.70;0.60;;;13.50;99.90;;;;;;5045808;28;20243;-32
2023/04/01 12:43:20;;;;;;;0.87;0.80;;;13.50;99.90;;;;;;5045566;28;20295;-32
2023/04/01 12:46:12;;;;;;;1.17;0.80;;;13.50;99.90;;;;;;5046060;28;20669;-32
2023/04/01 12:49:18;;;;;;;6.00;1.43;;;13.40;99.90;;;;;;5047376;28;20203;-32
2023/04/01 12:52:06;;;;;;;4.73;1.53;;;13.40;99.90;;;;;;5045443;28;20211;-32
2023/04/01 12:55:02;;;;;;;3.90;0.80;;;13.40;99.90;;;;;;5045245;28;20730;-32
2023/04/01 12:57:50;;;;;;;1.83;0.80;;;13.40;99.90;;;;;;5047040;28;20208;-32
2023/04/01 13:00:59;;;;;;;5.90;1.13;;;13.40;99.90;;;;;;5047008;28;20649;-32
2023/04/01 13:03:55;;;;;;;1.27;0.80;;;13.30;99.90;;;;;;5046873;28;20325;-32
2023/04/01 13:06:45;;;;;;;0.80;0.63;;;13.30;99.90;;;;;;5046034;28;20250;-32
2023/04/01 13:09:45;;;;;;;0.40;0.40;;;13.20;99.90;;;;;;5035559;28;20238;-32
2023/04/01 13:12:20;;;;;;;0.87;0.50;;;13.30;99.90;;;;;;5046783;28;20207;-32
2023/04/01 13:15:21;;;;;;;0.93;0.53;;;13.30;99.90;;;;;;5046712;28;20679;-35
2023/04/01 13:18:00;;;;;;;0.50;0.37;;;13.30;99.90;;;;;;5047150;28;20192;-35
2023/04/01 13:20:42;;;;;;;1.27;0.50;;;13.20;99.90;;;;;;5045592;28;20232;-35
2023/04/01 13:23:09;;;;;;;0.80;0.40;;;13.20;99.90;;;;;;5046991;28;20204;-35
2023/04/01 13:25:53;;;;;;;0.40;0.40;;;13.20;99.90;;;;;;5044873;28;20587;-34
2023/04/01 13:28:47;;;;;;;0.20;0.20;;;13.20;99.90;;;;;;5045645;28;21218;-35
2023/04/01 13:31:50;;;;;;;0.40;0.40;;;13.30;99.90;;;;;;5045075;28;20262;-35
2023/04/01 13:34:34;;;;;;;0.53;0.30;;;13.20;99.90;;;;;;5045543;28;20204;-35
2023/04/01 13:37:30;;;;;;;0.70;0.40;;;13.20;99.90;;;;;;5045137;28;20295;-35
2023/04/01 13:40:25;;;;;;;1.47;0.57;;;13.20;99.90;;;;;;5046461;28;20310;-32
2023/04/01 13:43:02;;;;;;;1.90;0.50;;;13.20;99.90;;;;;;5045070;28;20218;-32
2023/04/01 13:45:50;;;;;;;0.77;0.60;;;13.20;99.90;;;;;;5044983;28;20286;-34
2023/04/01 13:48:35;;;;;;;1.00;0.60;;;13.20;99.90;;;;;;5045216;28;20299;-34
2023/04/01 13:51:15;;;;;;;0.50;0.40;;;13.20;99.90;;;;;;5044632;28;20291;-34
2023/04/01 13:54:15;;;;;;;1.03;0.40;;;13.20;99.90;;;;;;5044976;28;20200;-34
2023/04/01 13:57:22;;;;;;;2.10;0.40;;;13.10;99.90;;;;;;5046160;28;20761;-34